Please be sure to check the latest weather conditions by clicking the link and viewing our local weather information!

Check Weather

Welcome to Lakeway Airpark (3R9)

FromTheAir

We’re a community airpark nestled within the town of Lakeway, Texas (17 miles northwest of downtown Austin).

Lakeway Airpark, Inc. was formed by Lakeway residents and interested parties to own and manage Lakeway Airpark (3R9).

The Airpark is a privately owned not for profit public use airport for residents and guests of Lakeway. No public funds are used and the airport is supported by fees and fuel sales at the airport.

Lakeway Airpark is an unmanned facility open for use from Sunrise to Sunset seven days a week. Takeoffs and landings are not permitted at night, between Sunset and Sunrise, by City Ordinance.

Quick Weather Info

Available data for KAUS from the past 2 hours
AUSTIN, TX
Metar
KAUS 181225Z 11003KT 6SM BR BKN008 OVC024 20/19 A2989 RMK AO2 T02000189

12:25 UTC

Wind: 110° 3kt

Visibility: 6 SM

Sky: BKN 800 ft

Temp: 20 deg C / 68 deg F

Dewpoint: 19 deg C / 66.2 deg F

Pressure: 29.89 inHg

TAF
KAUS 181140Z 1812/1918 18008KT P6SM BKN022 FM181400 11004KT 6SM BR OVC011 TEMPO 1815/1818 4SM SHRA OVC007 FM181800 01015G25KT 5SM -SHRA OVC010 FM190000 01016KT P6SM -SHRA OVC024 FM191000 36014KT 4SM SHRA BR OVC015